Time;durP1;ratioP1;P1;durP2;ratioP2;P2;SDS_P1;SDS_P2;PMS_P1;PMS_P2;Temp;Humidity;BMP_temperature;BMP_pressure;BME280_temperature;BME280_humidity;BME280_pressure;Samples;Min_cycle;Max_cycle;Signal;HPM_P1;HPM_P2
2022/07/02 00:00:19;;;;;;;23.52;10.00;;;;;;;13.92;100.00;101836.28;5051567;28;20037;-76
2022/07/02 00:02:50;;;;;;;22.48;10.18;;;;;;;14.07;100.00;101836.06;5035674;28;20072;-76
2022/07/02 00:05:20;;;;;;;20.83;10.63;;;;;;;13.98;100.00;101843.16;5035450;28;20115;-76
2022/07/02 00:07:46;;;;;;;16.75;8.93;;;;;;;13.79;100.00;101833.59;5053337;28;20036;-76
2022/07/02 00:10:13;;;;;;;26.48;9.80;;;;;;;13.72;100.00;101848.81;5052033;28;20488;-75
2022/07/02 00:12:38;;;;;;;17.35;9.80;;;;;;;13.65;100.00;101843.91;5051935;28;20033;-75
2022/07/02 00:15:04;;;;;;;22.70;10.10;;;;;;;13.72;100.00;101834.16;5052078;28;20396;-75
2022/07/02 00:17:30;;;;;;;18.08;9.60;;;;;;;13.67;100.00;101839.16;5052026;28;20411;-75
2022/07/02 00:19:57;;;;;;;19.08;10.35;;;;;;;13.66;100.00;101831.88;5052049;28;20033;-75
2022/07/02 00:22:23;;;;;;;26.88;9.88;;;;;;;13.77;100.00;101838.34;5053151;28;20108;-76
2022/07/02 00:24:49;;;;;;;17.73;8.73;;;;;;;13.70;100.00;101828.78;5053086;28;20108;-76
2022/07/02 00:27:18;;;;;;;22.90;9.38;;;;;;;13.79;100.00;101827.22;5053152;28;20037;-76
2022/07/02 00:30:03;;;;;;;17.70;8.95;;;;;;;13.65;100.00;101832.91;5052787;28;20045;-76
2022/07/02 00:32:32;;;;;;;15.55;8.95;;;;;;;13.42;100.00;101841.91;5051651;28;20033;-75
2022/07/02 00:34:59;;;;;;;21.40;10.30;;;;;;;13.41;100.00;101837.41;5051673;28;20036;-75
2022/07/02 00:37:28;;;;;;;18.08;9.93;;;;;;;13.53;100.00;101848.47;5051798;28;20519;-75
2022/07/02 00:39:54;;;;;;;21.67;9.80;;;;;;;13.50;100.00;101844.06;5051816;28;20087;-75
2022/07/02 00:42:23;;;;;;;18.15;9.75;;;;;;;13.38;100.00;101839.47;5051653;28;20025;-76
2022/07/02 00:44:49;;;;;;;23.08;11.75;;;;;;;13.51;100.00;101837.59;5051790;28;20072;-76
2022/07/02 00:47:16;;;;;;;22.90;9.70;;;;;;;13.39;100.00;101835.75;5051637;28;20060;-75
2022/07/02 00:49:42;;;;;;;16.98;9.98;;;;;;;13.44;100.00;101838.16;5051670;28;20025;-75
2022/07/02 00:52:08;;;;;;;22.80;10.30;;;;;;;13.45;100.00;101842.69;5051581;28;20132;-75
2022/07/02 00:54:35;;;;;;;23.13;11.40;;;;;;;13.52;100.00;101841.22;5052692;28;20033;-75
2022/07/02 00:57:02;;;;;;;24.38;9.95;;;;;;;13.52;100.00;101836.56;5052744;28;20040;-75
2022/07/02 00:59:28;;;;;;;17.23;8.55;;;;;;;13.47;100.00;101837.94;5052765;28;20506;-75
2022/07/02 01:01:54;;;;;;;21.20;11.00;;;;;;;13.46;100.00;101833.41;5052679;28;20024;-75
2022/07/02 01:04:20;;;;;;;18.95;10.25;;;;;;;13.32;100.00;101826.19;5051398;28;20029;-76
2022/07/02 01:06:48;;;;;;;20.83;10.27;;;;;;;13.14;100.00;101823.81;5051524;28;20033;-76
2022/07/02 01:12:02;;;;;;;20.85;10.10;;;;;;;13.30;100.00;101826.28;5053856;28;20040;-75
2022/07/02 01:14:29;;;;;;;16.73;9.38;;;;;;;13.33;100.00;101827.94;5055600;28;20036;-75
2022/07/02 01:16:55;;;;;;;31.80;13.70;;;;;;;13.26;100.00;101822.00;5038765;28;20492;-75
2022/07/02 01:19:22;;;;;;;27.67;13.40;;;;;;;13.09;100.00;101817.78;5056861;28;20514;-75
2022/07/02 01:22:10;;;;;;;31.80;15.98;;;;;;;13.21;100.00;101827.84;5056524;28;20033;-75
2022/07/02 01:24:36;;;;;;;48.65;19.85;;;;;;;13.16;100.00;101827.31;5056597;28;20032;-75
2022/07/02 01:27:01;;;;;;;49.47;23.75;;;;;;;13.20;100.00;101825.25;5056300;28;20091;-76
2022/07/02 01:29:26;;;;;;;48.28;23.73;;;;;;;13.24;100.00;101824.00;5038380;28;20145;-75
2022/07/02 01:31:52;;;;;;;66.65;28.30;;;;;;;13.17;100.00;101819.97;5056447;28;20477;-75
2022/07/02 01:34:17;;;;;;;64.22;28.02;;;;;;;13.12;100.00;101819.41;5056164;28;20037;-75
2022/07/02 01:36:43;;;;;;;60.72;25.63;;;;;;;13.15;100.00;101820.06;5054923;28;20087;-75
2022/07/02 01:39:08;;;;;;;45.80;21.35;;;;;;;13.15;100.00;101816.41;5054975;28;20496;-75
2022/07/02 01:41:40;;;;;;;37.38;17.90;;;;;;;13.04;100.00;101825.50;5055007;28;20095;-75
2022/07/02 01:44:06;;;;;;;33.72;15.77;;;;;;;12.94;100.00;101818.94;5054979;28;20033;-76
2022/07/02 01:46:31;;;;;;;34.88;15.43;;;;;;;12.95;100.00;101818.78;5055975;28;20048;-75
2022/07/02 01:48:57;;;;;;;45.83;15.45;;;;;;;12.92;100.00;101821.78;5054867;28;20480;-75
2022/07/02 01:51:23;;;;;;;32.42;14.18;;;;;;;12.96;100.00;101805.94;5038235;28;20163;-75
2022/07/02 01:53:49;;;;;;;26.60;13.65;;;;;;;13.06;100.00;101812.50;5055869;28;20503;-75
2022/07/02 01:56:14;;;;;;;23.85;12.85;;;;;;;13.05;100.00;101810.72;5055862;28;20088;-75
2022/07/02 01:58:40;;;;;;;22.80;11.68;;;;;;;13.02;100.00;101813.75;5054566;28;20033;-75
2022/07/02 02:01:05;;;;;;;21.52;11.88;;;;;;;13.04;100.00;101815.38;5055783;28;20052;-75
2022/07/02 02:03:30;;;;;;;25.20;12.30;;;;;;;13.08;100.00;101815.13;5037940;28;20029;-75
2022/07/02 02:05:56;;;;;;;19.58;11.35;;;;;;;13.12;100.00;101822.16;5055806;28;20392;-75
2022/07/02 02:08:22;;;;;;;18.45;10.98;;;;;;;13.10;100.00;101825.03;5037699;28;20120;-75
2022/07/02 02:10:47;;;;;;;17.83;10.57;;;;;;;13.12;100.00;101824.91;5054717;28;20093;-75
2022/07/02 02:13:12;;;;;;;25.00;11.23;;;;;;;13.03;100.00;101819.09;5054319;28;20178;-75
2022/07/02 02:15:38;;;;;;;22.33;11.40;;;;;;;12.97;100.00;101816.81;5054257;28;20037;-75
2022/07/02 02:18:03;;;;;;;27.05;10.98;;;;;;;12.98;100.00;101815.81;5037676;28;20060;-75
2022/07/02 02:20:29;;;;;;;19.17;10.93;;;;;;;13.00;100.00;101816.59;5054275;28;20503;-75
2022/07/02 02:22:55;;;;;;;19.25;11.15;;;;;;;13.02;100.00;101822.84;5053749;28;20099;-75
2022/07/02 02:25:21;;;;;;;18.50;10.73;;;;;;;13.12;100.00;101817.56;5054883;28;20369;-75
2022/07/02 02:27:47;;;;;;;19.38;10.85;;;;;;;13.03;100.00;101820.97;5037486;28;20530;-75
2022/07/02 02:30:14;;;;;;;16.52;10.45;;;;;;;13.00;100.00;101821.19;5020812;28;20053;-75
2022/07/02 02:32:39;;;;;;;17.58;10.95;;;;;;;12.99;100.00;101823.06;5055044;28;20033;-75
2022/07/02 02:35:05;;;;;;;19.23;10.93;;;;;;;12.95;100.00;101828.91;5054029;28;20028;-75
2022/07/02 02:37:32;;;;;;;23.67;11.57;;;;;;;12.88;100.00;101826.59;5055125;28;20029;-75
2022/07/02 02:39:57;;;;;;;21.40;11.20;;;;;;;12.88;100.00;101818.34;5053938;28;20396;-75
2022/07/02 02:42:23;;;;;;;21.23;11.02;;;;;;;12.84;100.00;101824.22;5055092;28;20047;-75
2022/07/02 02:44:48;;;;;;;25.10;12.13;;;;;;;12.81;100.00;101832.69;5054914;28;20480;-75
2022/07/02 02:47:13;;;;;;;23.58;11.85;;;;;;;12.74;100.00;101826.75;5053948;28;20060;-75
2022/07/02 02:49:39;;;;;;;27.45;12.13;;;;;;;12.80;100.00;101834.53;5053620;28;20068;-75
2022/07/02 02:52:05;;;;;;;17.48;10.95;;;;;;;12.78;100.00;101835.66;5037050;28;20369;-75
2022/07/02 02:54:30;;;;;;;19.63;11.82;;;;;;;12.87;100.00;101840.44;5053489;28;20039;-75
2022/07/02 02:56:56;;;;;;;22.45;11.07;;;;;;;12.91;100.00;101835.63;5053553;28;20033;-75
2022/07/02 02:59:21;;;;;;;21.65;11.95;;;;;;;12.87;100.00;101843.19;5053497;28;20040;-75
2022/07/02 03:01:47;;;;;;;19.75;11.35;;;;;;;12.86;100.00;101839.59;5036754;28;20454;-74
2022/07/02 03:04:12;;;;;;;25.13;11.90;;;;;;;12.85;100.00;101837.84;5036695;28;20111;-75
2022/07/02 03:06:38;;;;;;;17.17;11.32;;;;;;;12.78;100.00;101841.16;5053360;28;20127;-75
2022/07/02 03:09:04;;;;;;;24.45;12.05;;;;;;;12.75;100.00;101839.50;5036625;28;20044;-75
2022/07/02 03:11:29;;;;;;;22.88;11.57;;;;;;;12.77;100.00;101839.38;5036592;28;20489;-75
2022/07/02 03:13:54;;;;;;;27.50;11.60;;;;;;;12.80;100.00;101837.28;5054487;28;20048;-75
2022/07/02 03:16:20;;;;;;;25.80;12.00;;;;;;;12.77;100.00;101842.13;5053224;28;20111;-75
2022/07/02 03:18:46;;;;;;;27.90;11.85;;;;;;;12.80;100.00;101841.91;5053180;28;20538;-75
2022/07/02 03:21:12;;;;;;;23.13;12.05;;;;;;;12.80;100.00;101837.28;5036551;28;20086;-75
2022/07/02 03:23:37;;;;;;;22.30;11.50;;;;;;;12.82;100.00;101842.66;5054292;28;20108;-75
2022/07/02 03:26:03;;;;;;;19.77;12.15;;;;;;;12.72;100.00;101847.94;5053043;28;20075;-75
2022/07/02 03:28:29;;;;;;;29.92;13.90;;;;;;;12.67;100.00;101841.91;5054229;28;20033;-75
2022/07/02 03:30:54;;;;;;;31.35;12.40;;;;;;;12.75;100.00;101855.09;5036566;28;20050;-75
2022/07/02 03:33:20;;;;;;;21.90;11.85;;;;;;;12.66;100.00;101852.03;5052663;28;20166;-75
2022/07/02 03:35:45;;;;;;;24.33;12.18;;;;;;;12.65;100.00;101852.13;5051726;28;20499;-75
2022/07/02 03:38:11;;;;;;;23.92;12.75;;;;;;;12.72;100.00;101852.56;5052719;28;20384;-76
2022/07/02 03:40:36;;;;;;;22.40;13.35;;;;;;;12.73;100.00;101849.72;5052744;28;20578;-74
2022/07/02 03:43:02;;;;;;;32.67;12.15;;;;;;;12.72;100.00;101860.81;5052506;28;20040;-75
2022/07/02 03:45:27;;;;;;;28.08;12.88;;;;;;;12.65;100.00;101858.50;5053814;28;20100;-74
2022/07/02 03:47:53;;;;;;;24.58;12.43;;;;;;;12.66;100.00;101860.28;5035935;28;20454;-75
2022/07/02 03:50:18;;;;;;;22.55;12.85;;;;;;;12.72;100.00;101853.44;5035855;28;20037;-75
2022/07/02 03:52:43;;;;;;;26.15;14.27;;;;;;;12.66;100.00;101854.78;5053706;28;20037;-75
2022/07/02 03:55:09;;;;;;;24.00;12.75;;;;;;;12.73;100.00;101848.84;5035827;28;20109;-75
2022/07/02 03:57:35;;;;;;;29.02;13.65;;;;;;;12.71;100.00;101850.81;5053694;28;20036;-75
2022/07/02 04:00:02;;;;;;;25.45;13.23;;;;;;;12.74;100.00;101856.09;5053563;28;20036;-76
2022/07/02 04:02:28;;;;;;;24.25;12.50;;;;;;;12.72;100.00;101858.94;5053564;28;20057;-75
2022/07/02 04:04:54;;;;;;;21.98;12.90;;;;;;;12.74;100.00;101856.09;5052100;28;20432;-75
2022/07/02 04:07:20;;;;;;;30.85;13.43;;;;;;;12.74;100.00;101858.84;5053490;28;20039;-75
2022/07/02 04:09:45;;;;;;;22.98;12.73;;;;;;;12.77;100.00;101864.13;5052226;28;20033;-75
2022/07/02 04:12:11;;;;;;;28.85;13.43;;;;;;;12.80;100.00;101873.00;5052290;28;20445;-75
2022/07/02 04:14:36;;;;;;;26.20;13.30;;;;;;;12.74;100.00;101864.31;5053386;28;20094;-76
2022/07/02 04:17:02;;;;;;;24.80;13.27;;;;;;;12.72;100.00;101864.44;5035450;28;20040;-75
2022/07/02 04:19:28;;;;;;;27.63;12.20;;;;;;;12.83;100.00;101864.53;5052135;28;20045;-75
2022/07/02 04:21:54;;;;;;;29.17;13.18;;;;;;;12.78;100.00;101865.88;5051988;28;20037;-75
2022/07/02 04:24:20;;;;;;;20.20;12.63;;;;;;;12.84;100.00;101865.44;5053426;28;20051;-75
2022/07/02 04:26:45;;;;;;;29.17;12.60;;;;;;;12.81;100.00;101862.91;5051508;28;20082;-75
2022/07/02 04:29:11;;;;;;;23.30;12.82;;;;;;;12.91;100.00;101863.13;5035175;28;20052;-75
2022/07/02 04:31:36;;;;;;;25.38;13.98;;;;;;;12.93;100.00;101862.00;5052027;28;20033;-75
2022/07/02 04:34:02;;;;;;;24.50;12.80;;;;;;;12.96;100.00;101866.41;5053079;28;20500;-75
2022/07/02 04:36:27;;;;;;;23.25;12.52;;;;;;;13.03;100.00;101864.97;5051893;28;20048;-75
2022/07/02 04:38:53;;;;;;;21.63;12.23;;;;;;;13.10;100.00;101865.38;5051842;28;20056;-75
2022/07/02 04:41:18;;;;;;;24.73;12.70;;;;;;;13.17;100.00;101863.97;5052894;28;20480;-75
2022/07/02 04:43:44;;;;;;;30.85;12.85;;;;;;;13.17;100.00;101864.81;5052113;28;20361;-75
2022/07/02 04:46:09;;;;;;;22.38;11.93;;;;;;;13.23;100.00;101852.47;5051562;28;20037;-76
2022/07/02 04:48:35;;;;;;;17.27;12.18;;;;;;;13.27;100.00;101861.41;5052828;28;20143;-75
2022/07/02 04:51:01;;;;;;;34.72;13.60;;;;;;;13.34;100.00;101868.22;5053034;28;20040;-75
2022/07/02 04:53:27;;;;;;;25.42;12.55;;;;;;;13.48;100.00;101859.81;5051711;28;20041;-76
2022/07/02 04:55:52;;;;;;;30.60;12.98;;;;;;;13.55;100.00;101863.88;5051729;28;20090;-76
2022/07/02 04:58:18;;;;;;;27.25;14.10;;;;;;;13.55;100.00;101863.88;5052891;28;20580;-76
2022/07/02 05:00:43;;;;;;;25.88;12.75;;;;;;;13.63;100.00;101863.28;5051800;28;20484;-76
2022/07/02 05:03:08;;;;;;;24.35;12.73;;;;;;;13.79;100.00;101861.13;5051631;28;20098;-76
2022/07/02 05:05:34;;;;;;;28.58;12.82;;;;;;;13.82;100.00;101856.38;5051525;28;20036;-76
2022/07/02 05:07:59;;;;;;;26.70;12.75;;;;;;;13.92;100.00;101863.81;5034956;28;20029;-76
2022/07/02 05:10:25;;;;;;;26.95;13.10;;;;;;;13.96;100.00;101865.31;5051846;28;20075;-76
2022/07/02 05:12:51;;;;;;;32.38;13.48;;;;;;;14.00;100.00;101874.22;5052676;28;20508;-76
2022/07/02 05:15:16;;;;;;;22.88;13.13;;;;;;;14.03;100.00;101862.97;5034933;28;20116;-76
2022/07/02 05:17:41;;;;;;;30.77;13.88;;;;;;;14.12;100.00;101873.28;5051453;28;20091;-76
2022/07/02 05:20:07;;;;;;;33.58;14.23;;;;;;;14.30;100.00;101865.44;5052718;28;20037;-76
2022/07/02 05:22:33;;;;;;;20.77;11.85;;;;;;;14.49;100.00;101869.50;5002246;28;20124;-76
2022/07/02 05:24:58;;;;;;;28.02;12.02;;;;;;;14.80;100.00;101864.31;5051641;28;20059;-76
2022/07/02 05:27:24;;;;;;;22.05;12.75;;;;;;;14.97;100.00;101858.31;5052699;28;20040;-76
2022/07/02 05:29:49;;;;;;;30.00;12.52;;;;;;;15.18;100.00;101852.91;5051231;28;20053;-76
2022/07/02 05:32:15;;;;;;;30.55;11.90;;;;;;;15.42;100.00;101863.75;5051421;28;20029;-76
2022/07/02 05:34:40;;;;;;;29.52;12.77;;;;;;;15.48;100.00;101859.63;5052638;28;20041;-76
2022/07/02 05:37:05;;;;;;;25.13;12.60;;;;;;;15.57;100.00;101858.84;5051420;28;20434;-76
2022/07/02 05:39:31;;;;;;;20.88;11.73;;;;;;;15.64;100.00;101861.94;5052397;28;20037;-76
2022/07/02 05:41:56;;;;;;;20.25;10.98;;;;;;;15.89;100.00;101869.06;5051198;28;20063;-76
2022/07/02 05:44:22;;;;;;;34.20;11.50;;;;;;;16.49;100.00;101874.91;5051298;28;20060;-76
2022/07/02 05:46:47;;;;;;;21.08;10.75;;;;;;;16.61;100.00;101878.50;5034679;28;20044;-76
2022/07/02 05:49:13;;;;;;;25.35;11.15;;;;;;;16.57;100.00;101877.00;5052398;28;20033;-76
2022/07/02 05:51:38;;;;;;;22.92;10.05;;;;;;;17.37;100.00;101869.84;5051081;28;20039;-76
2022/07/02 05:54:04;;;;;;;21.55;10.38;;;;;;;17.05;100.00;101883.84;5051085;28;20109;-76
2022/07/02 05:56:29;;;;;;;18.92;10.32;;;;;;;17.07;100.00;101882.72;5051095;28;20116;-76
2022/07/02 05:58:55;;;;;;;21.67;10.20;;;;;;;17.09;100.00;101877.03;5052154;28;20040;-77
2022/07/02 06:01:20;;;;;;;20.75;9.65;;;;;;;17.76;100.00;101881.03;5038077;28;20061;-76
2022/07/02 06:03:46;;;;;;;26.77;9.73;;;;;;;17.72;100.00;101873.13;5054728;28;20060;-77
2022/07/02 06:08:56;;;;;;;21.33;9.43;;;;;;;18.32;100.00;101875.84;5054604;28;20044;-75
2022/07/02 06:11:21;;;;;;;23.98;9.95;;;;;;;19.23;100.00;101878.09;5037751;28;20037;-75
2022/07/02 06:13:46;;;;;;;22.60;8.82;;;;;;;19.26;100.00;101875.00;5054380;28;20393;-75
2022/07/02 06:16:12;;;;;;;22.08;9.27;;;;;;;19.54;100.00;101872.22;5054423;28;20069;-75
2022/07/02 06:18:38;;;;;;;25.25;8.15;;;;;;;19.49;100.00;101872.69;5037839;28;20057;-75
2022/07/02 06:21:03;;;;;;;14.95;7.95;;;;;;;19.54;100.00;101878.63;5054229;28;20114;-75
2022/07/02 06:23:29;;;;;;;17.70;8.63;;;;;;;19.80;100.00;101880.72;5055510;28;20086;-75
2022/07/02 06:25:54;;;;;;;24.13;8.60;;;;;;;19.88;100.00;101880.81;5021230;28;20542;-76
2022/07/02 06:28:20;;;;;;;21.50;8.40;;;;;;;19.93;100.00;101875.63;5037614;28;20033;-76
2022/07/02 06:30:45;;;;;;;21.95;7.75;;;;;;;20.73;100.00;101884.00;5053866;28;20508;-76
2022/07/02 06:33:10;;;;;;;19.02;7.28;;;;;;;20.44;100.00;101887.06;5037302;28;20067;-76
2022/07/02 06:35:36;;;;;;;18.75;7.43;;;;;;;20.06;100.00;101899.41;5054151;28;20378;-76
2022/07/02 06:38:02;;;;;;;18.85;8.00;;;;;;;19.70;100.00;101893.78;5055179;28;20048;-76
2022/07/02 06:40:27;;;;;;;17.70;6.80;;;;;;;19.99;100.00;101902.81;5055130;28;20033;-76
2022/07/02 06:42:54;;;;;;;14.95;7.47;;;;;;;20.27;100.00;101893.53;5053792;28;20112;-76
2022/07/02 06:45:19;;;;;;;19.50;7.60;;;;;;;20.54;100.00;101898.09;5055057;28;20072;-76
2022/07/02 06:47:45;;;;;;;17.45;7.78;;;;;;;20.26;100.00;101895.41;5054888;28;20060;-76
2022/07/02 06:50:11;;;;;;;11.30;6.50;;;;;;;20.41;100.00;101892.06;5053824;28;20391;-76
2022/07/02 06:52:37;;;;;;;15.02;6.03;;;;;;;21.47;100.00;101891.91;5053697;28;20133;-76
2022/07/02 06:55:04;;;;;;;13.35;5.78;;;;;;;21.60;100.00;101899.84;5053540;28;20052;-76
2022/07/02 06:57:29;;;;;;;15.73;6.38;;;;;;;20.97;100.00;101892.69;5055012;28;20162;-76
2022/07/02 06:59:55;;;;;;;11.25;4.18;;;;;;;20.64;99.67;101886.91;5053549;28;20453;-76
2022/07/02 07:02:21;;;;;;;11.00;3.03;;;;;;;21.34;93.67;101889.59;5054698;28;20112;-76
2022/07/02 07:04:47;;;;;;;7.35;3.33;;;;;;;21.62;90.40;101889.38;5054519;28;20100;-76
2022/07/02 07:07:13;;;;;;;8.07;3.10;;;;;;;22.32;83.82;101883.44;5053452;28;20086;-76
2022/07/02 07:09:38;;;;;;;14.38;3.38;;;;;;;22.43;84.66;101887.81;5052946;28;20029;-76
2022/07/02 07:12:04;;;;;;;7.50;3.33;;;;;;;23.42;76.50;101887.63;5054943;28;20025;-76
2022/07/02 07:14:31;;;;;;;6.90;3.83;;;;;;;22.31;84.72;101891.97;5020199;28;20033;-76
2022/07/02 07:16:57;;;;;;;8.45;3.72;;;;;;;22.41;81.80;101895.47;5054157;28;20108;-76
2022/07/02 07:19:22;;;;;;;13.60;3.70;;;;;;;22.24;80.74;101902.06;5052960;28;20065;-76
2022/07/02 07:21:48;;;;;;;6.65;2.70;;;;;;;22.97;75.73;101889.13;5052916;28;20083;-75
2022/07/02 07:24:13;;;;;;;10.68;2.67;;;;;;;23.24;72.11;101893.47;5053041;28;20025;-76
2022/07/02 07:26:39;;;;;;;6.15;2.75;;;;;;;22.92;77.81;101896.13;5054401;28;20063;-75
2022/07/02 07:29:08;;;;;;;15.80;3.97;;;;;;;22.44;80.71;101897.91;5019955;28;20116;-76
2022/07/02 07:31:35;;;;;;;6.30;3.22;;;;;;;22.84;76.74;101898.94;5053248;28;20040;-77
2022/07/02 07:34:02;;;;;;;9.57;3.17;;;;;;;23.46;73.90;101886.19;5052671;28;20036;-76
2022/07/02 07:36:27;;;;;;;10.20;3.30;;;;;;;24.13;71.95;101894.06;5019941;28;20133;-75
2022/07/02 07:38:53;;;;;;;9.07;3.28;;;;;;;23.57;75.57;101902.56;5052549;28;20051;-75
2022/07/02 07:41:20;;;;;;;8.55;3.05;;;;;;;23.36;74.26;101903.19;5053985;28;20083;-75
2022/07/02 07:43:46;;;;;;;7.65;3.90;;;;;;;24.13;75.25;101898.78;5052546;28;20032;-75
2022/07/02 07:46:12;;;;;;;8.13;3.10;;;;;;;23.84;72.49;101890.06;5052440;28;20037;-75
2022/07/02 07:48:38;;;;;;;8.43;2.70;;;;;;;23.80;70.38;101888.66;5052438;28;20040;-75
2022/07/02 07:51:05;;;;;;;5.28;2.60;;;;;;;23.76;75.56;101887.28;5052374;28;20472;-76
2022/07/02 07:53:31;;;;;;;8.00;2.33;;;;;;;24.13;70.38;101896.00;5035928;28;20064;-76
2022/07/02 07:55:56;;;;;;;7.10;2.60;;;;;;;23.81;71.92;101887.59;5052358;28;20058;-76
2022/07/02 07:58:22;;;;;;;6.43;1.90;;;;;;;24.70;67.76;101889.09;5036044;28;20361;-76
2022/07/02 08:00:48;;;;;;;10.45;2.70;;;;;;;24.02;70.81;101888.88;5053544;28;20114;-76
2022/07/02 08:03:14;;;;;;;8.52;2.88;;;;;;;23.33;71.75;101888.72;5053830;28;20040;-76
2022/07/02 08:05:41;;;;;;;5.43;2.13;;;;;;;23.18;74.61;101889.44;5035710;28;20037;-76
2022/07/02 08:08:07;;;;;;;16.58;2.55;;;;;;;23.34;73.93;101888.53;5052255;28;20473;-76
2022/07/02 08:10:33;;;;;;;4.95;2.03;;;;;;;23.62;70.89;101872.13;5053431;28;20107;-76
2022/07/02 08:12:59;;;;;;;7.75;1.90;;;;;;;23.33;74.33;101872.81;5052075;28;20072;-76
2022/07/02 08:15:25;;;;;;;10.18;2.30;;;;;;;23.38;73.95;101872.25;5052151;28;20070;-76
2022/07/02 08:17:51;;;;;;;10.15;2.30;;;;;;;24.09;70.64;101875.03;5052162;28;20033;-76
2022/07/02 08:20:16;;;;;;;6.13;2.08;;;;;;;23.68;73.15;101867.75;5053382;28;20057;-76
2022/07/02 08:22:46;;;;;;;3.08;1.80;;;;;;;24.12;67.97;101875.53;5051593;28;20025;-76
2022/07/02 08:25:15;;;;;;;4.63;1.85;;;;;;;23.83;69.16;101876.25;5052112;28;20107;-76
2022/07/02 08:27:41;;;;;;;5.72;2.10;;;;;;;24.24;67.35;101869.53;5053222;28;20033;-76
2022/07/02 08:30:08;;;;;;;5.13;1.40;;;;;;;23.89;69.10;101866.25;5051922;28;20106;-76
2022/07/02 08:32:33;;;;;;;3.60;1.80;;;;;;;24.88;63.89;101874.72;5053230;28;20040;-76
2022/07/02 08:34:59;;;;;;;5.85;1.60;;;;;;;25.01;64.98;101869.31;5051968;28;20041;-76
2022/07/02 08:37:25;;;;;;;3.95;1.60;;;;;;;24.40;66.90;101864.66;5051808;28;20392;-76
2022/07/02 08:39:51;;;;;;;8.48;1.70;;;;;;;24.08;68.58;101867.72;5051937;28;20395;-76
2022/07/02 08:42:29;;;;;;;11.40;1.40;;;;;;;24.70;65.31;101864.75;5053089;28;20109;-76
2022/07/02 08:44:57;;;;;;;3.25;1.08;;;;;;;24.82;67.26;101865.13;5053068;28;20032;-76
2022/07/02 08:47:24;;;;;;;3.13;1.27;;;;;;;25.55;64.43;101867.28;5051863;28;20102;-76
2022/07/02 08:49:53;;;;;;;11.68;1.45;;;;;;;24.39;64.86;101868.50;5051816;28;20037;-77
2022/07/02 08:52:21;;;;;;;5.82;1.30;;;;;;;24.63;64.17;101865.69;5051717;28;20037;-76
2022/07/02 08:54:48;;;;;;;3.72;1.00;;;;;;;25.53;62.58;101864.69;5052909;28;20033;-76
2022/07/02 08:57:14;;;;;;;8.38;1.67;;;;;;;24.71;63.39;101858.09;5051923;28;20064;-76
2022/07/02 08:59:41;;;;;;;3.28;1.05;;;;;;;25.00;64.79;101856.34;5018840;28;20033;-76
2022/07/02 09:02:07;;;;;;;3.67;1.20;;;;;;;25.11;63.25;101861.50;5051725;28;20040;-76
2022/07/02 09:04:39;;;;;;;7.63;1.40;;;;;;;25.26;61.51;101857.81;5051555;28;20130;-77
2022/07/02 09:07:07;;;;;;;6.53;1.00;;;;;;;25.51;61.66;101864.00;5052950;28;20072;-76
2022/07/02 09:09:33;;;;;;;11.52;1.10;;;;;;;25.46;61.20;101858.97;5051316;28;20032;-76
2022/07/02 09:11:59;;;;;;;4.88;0.90;;;;;;;25.48;61.68;101853.16;5051558;28;20033;-76
2022/07/02 09:14:25;;;;;;;7.30;1.10;;;;;;;24.95;60.34;101848.53;5051522;28;20040;-76
2022/07/02 09:16:51;;;;;;;7.05;1.30;;;;;;;25.35;59.36;101847.38;5051557;28;20088;-76
2022/07/02 09:19:17;;;;;;;5.18;1.20;;;;;;;24.91;60.15;101840.72;5052761;28;20052;-76
2022/07/02 09:21:48;;;;;;;13.07;1.88;;;;;;;24.95;60.13;101837.31;5051533;28;20075;-76
2022/07/02 09:24:14;;;;;;;4.05;1.35;;;;;;;25.38;57.88;101844.19;5052688;28;20021;-76
2022/07/02 09:26:40;;;;;;;2.70;0.90;;;;;;;24.97;59.65;101844.66;5051347;28;20025;-76
2022/07/02 09:29:06;;;;;;;6.72;1.13;;;;;;;24.66;64.72;101831.69;5034559;28;20040;-76
2022/07/02 09:31:32;;;;;;;4.60;0.90;;;;;;;25.32;60.16;101840.25;5052591;28;20040;-76
2022/07/02 09:33:59;;;;;;;7.55;1.20;;;;;;;24.75;58.63;101830.56;5055143;28;20561;-77
2022/07/02 09:36:24;;;;;;;5.57;1.48;;;;;;;24.74;59.56;101829.69;5038627;28;20060;-76
2022/07/02 09:38:52;;;;;;;6.00;1.08;;;;;;;25.43;57.49;101825.75;5056259;28;20425;-77
2022/07/02 09:41:23;;;;;;;5.22;1.02;;;;;;;25.42;55.38;101826.78;5056442;28;20033;-77
2022/07/02 09:44:07;;;;;;;9.27;1.10;;;;;;;25.11;55.07;101830.66;5056466;28;20025;-76
2022/07/02 09:46:32;;;;;;;3.92;1.00;;;;;;;25.34;58.17;101818.50;5054967;28;20033;-76
2022/07/02 09:49:07;;;;;;;5.03;1.30;;;;;;;25.26;57.39;101801.75;5054860;28;20048;-76
2022/07/02 09:51:33;;;;;;;5.57;1.17;;;;;;;25.45;56.74;101814.31;5054878;28;20075;-77
2022/07/02 09:53:58;;;;;;;3.67;0.98;;;;;;;25.78;55.11;101811.91;5038221;28;20126;-77
2022/07/02 09:56:24;;;;;;;5.85;1.25;;;;;;;26.01;54.72;101813.69;5055941;28;20102;-77
2022/07/02 09:58:51;;;;;;;6.38;1.05;;;;;;;25.54;54.80;101806.66;5055781;28;20025;-76
2022/07/02 10:01:21;;;;;;;2.42;0.90;;;;;;;25.24;57.74;101809.50;5054649;28;20041;-77
2022/07/02 10:03:57;;;;;;;2.25;0.80;;;;;;;25.59;56.44;101807.78;5055828;28;20485;-76
2022/07/02 10:06:22;;;;;;;7.55;1.02;;;;;;;26.49;54.01;101811.06;5054346;28;20024;-77
2022/07/02 10:08:48;;;;;;;9.77;1.02;;;;;;;25.98;53.65;101800.91;5054519;28;20047;-77
2022/07/02 10:11:15;;;;;;;5.70;1.00;;;;;;;25.44;55.56;101809.78;5054503;28;20094;-76
2022/07/02 10:13:42;;;;;;;2.63;0.75;;;;;;;24.66;56.42;101810.19;5054509;28;20037;-76
2022/07/02 10:16:13;;;;;;;6.60;0.70;;;;;;;25.50;52.38;101807.03;5054591;28;20040;-76
2022/07/02 10:18:42;;;;;;;3.72;0.75;;;;;;;24.87;56.21;101795.38;5054895;28;20024;-76
2022/07/02 10:21:12;;;;;;;4.53;0.70;;;;;;;25.49;54.09;101791.28;5038158;28;20061;-77
2022/07/02 10:23:44;;;;;;;6.28;1.08;;;;;;;24.88;52.80;101793.47;5054736;28;20096;-77
2022/07/02 10:26:10;;;;;;;2.13;0.93;;;;;;;25.00;53.99;101788.25;5055632;28;20072;-77
2022/07/02 10:28:36;;;;;;;2.17;0.70;;;;;;;25.72;52.63;101795.00;5055660;28;20036;-77
2022/07/02 10:31:02;;;;;;;6.15;0.90;;;;;;;24.91;55.57;101777.13;5055462;28;20087;-75
2022/07/02 10:33:51;;;;;;;3.80;0.70;;;;;;;24.44;57.02;101778.34;5055257;28;20025;-76
2022/07/02 10:36:19;;;;;;;4.25;0.63;;;;;;;24.41;54.23;101778.72;5054167;28;20029;-77
2022/07/02 10:38:57;;;;;;;3.65;0.70;;;;;;;24.92;55.01;101772.41;5054155;28;20086;-77
2022/07/02 10:41:30;;;;;;;3.22;0.70;;;;;;;25.13;50.61;101768.78;5055274;28;20488;-77
2022/07/02 10:43:56;;;;;;;2.13;0.60;;;;;;;25.77;52.04;101768.06;5053659;28;20111;-76
2022/07/02 10:46:26;;;;;;;2.92;0.60;;;;;;;25.78;50.35;101774.56;5053556;28;20103;-77
2022/07/02 10:48:54;;;;;;;4.05;0.60;;;;;;;25.25;51.61;101770.03;5037009;28;20025;-77
2022/07/02 10:51:23;;;;;;;7.35;0.70;;;;;;;24.43;51.23;101764.53;5055109;28;20044;-77
2022/07/02 10:53:56;;;;;;;4.55;0.73;;;;;;;24.76;52.75;101768.75;5053646;28;20071;-77
2022/07/02 10:56:23;;;;;;;3.65;0.70;;;;;;;24.50;53.18;101774.78;5054956;28;20036;-77
2022/07/02 10:58:49;;;;;;;2.80;0.60;;;;;;;24.55;52.95;101765.81;5054914;28;20381;-77
2022/07/02 11:01:24;;;;;;;4.00;0.70;;;;;;;25.23;52.85;101762.88;5053495;28;20032;-77
2022/07/02 11:03:57;;;;;;;1.92;0.70;;;;;;;25.19;53.28;101759.63;5055003;28;20025;-76
2022/07/02 11:06:24;;;;;;;4.10;0.75;;;;;;;25.46;50.41;101766.44;5053607;28;20178;-77
2022/07/02 11:08:52;;;;;;;6.18;0.70;;;;;;;26.17;48.73;101765.69;5053453;28;20032;-77
2022/07/02 11:11:36;;;;;;;8.73;0.70;;;;;;;25.70;51.33;101769.94;5053301;28;20025;-77
2022/07/02 11:14:04;;;;;;;1.40;0.50;;;;;;;25.32;47.77;101767.34;5054433;28;20365;-77